Terminal Aerodrome Forecast
Issued by NWS

Home | Current Version | Previous Version | Graphics & Text | Print | Product List | Glossary On
Versions: 1 2 3 4 5 6 7 8 9 10 11 12 13 14 15 16 17 18 19 20
000
FTUS43 KMPX 060526
TAFAXN
TAF
KAXN 060526Z 0606/0706 35008KT 6SM -SHRA BR SCT025 OVC060
     FM060800 02008KT P6SM OVC080
     FM061200 01012KT 5SM -SHRA BR SCT012 OVC040
     FM061700 35015G22KT P6SM BKN100
     FM070000 33007KT P6SM SKC=

USA.gov is the U.S. government's official web portal to all federal, state and local government web resources and services.